Buffalo, SD (57720)

9:36 PM MDT on May 04, 2015 (GMT -0600)
Hettinger Municipal | | Change Station
CLOSE
Current Station
Airport
Location: Hettinger,
Elevation: 2703 ft
Nearby Weather Stations

Elev 2703 ft 46.01 °N, 102.66 °W | Updated 43 minutes ago

Partly Cloudy
Partly Cloudy
51 °F
Feels Like 51 °F
N
10
Wind Variable Wind from SE

Today
High -- | Low -- °F
--% Chance of Precip.
Yesterday
High -- | Low -- °F
Precip. -- in
5:38 AM 8:05 PM
Full, 99% visible
Pressure 30.13 in
Visibility 10.0 miles
Clouds Overcast 7000 ft
Dew Point 32 °F
Humidity 48%
Rainfall 0.00 in
Snow Depth Not available.
UV 0 out of 12
Pollen 10.20 out of 12
Air Quality Not available.
Flu Activity Sporadic
METAR KHEI 050253Z AUTO 13009KT 10SM OVC070 11/00 A3011 RMK AO2 SLP201 T01060000 56005

More Conditions Fewer Conditions

Pressure 30.13 in
Visibility 10.0 miles
Clouds Overcast 7000 ft
Dew Point 32 °F
Humidity 48%
Rainfall 0.00 in
Snow Depth Not available.
UV 0 out of 12
Pollen 10.20 out of 12
Air Quality Not available.
Flu Activity Sporadic
METAR KHEI 050253Z AUTO 13009KT 10SM OVC070 11/00 A3011 RMK AO2 SLP201 T01060000 56005

More Conditions Fewer Conditions

Nepal has a long way to go to dig out and rebuild from a devastating earthquake. We have teamed up with several charities and organizations to make contributing to the relief effort as easy as possible.
How you can help: Portlight Strategies | Red Cross

10-Day Weather Forecast

Almanac

Astronomy

May. 04, 2015 Rise Set
Actual Time
Civil Twilight
Nautical Twilight
Astronomical Twilight
Moon
Length of Visible Light
Length of Day
Tomorrow will be .
, % of the Moon is Illuminated

Today's Extremes

State Highs State Lows

Community

WunderPhotos

Upload Photos

1,818,812 photos uploaded!

WunderBlogs® & News

Nearby

Air Quality

  Air Quality AQ Index Pollutant
Not available.

Snow Depth

Station Depth Elevation

Earthquake Activity

City Distance Mag. Time & Date
Minimum magnitude displayed is 2.5.

Coastal Water Temperatures

Place Temperature

Stations

Nearby Weather Stations

Station Location Temp. Windchill Dew Point Humidity Wind Precip. Elev Updated Type